Time;durP1;ratioP1;P1;durP2;ratioP2;P2;SDS_P1;SDS_P2;PMS_P1;PMS_P2;Temp;Humidity;BMP_temperature;BMP_pressure;BME280_temperature;BME280_humidity;BME280_pressure;Samples;Min_cycle;Max_cycle;Signal;HPM_P1;HPM_P2
2022/08/18 00:02:21;;;;;;;5.00;3.10;;;;;;;-148.56;100.00;61375.16;4911888;28;20034;-25
2022/08/18 00:04:47;;;;;;;3.10;2.80;;;;;;;-148.56;100.00;61375.16;4906775;28;20042;-29
2022/08/18 00:07:15;;;;;;;3.25;2.95;;;;;;;-148.56;100.00;61375.16;4913272;28;20039;-27
2022/08/18 00:09:40;;;;;;;4.55;3.20;;;;;;;-148.56;100.00;61375.16;4917221;28;21714;-26
2022/08/18 00:12:17;;;;;;;3.47;2.95;;;;;;;-148.56;100.00;61375.16;4907516;28;21298;-27
2022/08/18 00:14:42;;;;;;;6.32;3.30;;;;;;;-148.56;100.00;61375.16;4910387;28;20036;-33
2022/08/18 00:17:08;;;;;;;3.83;2.92;;;;;;;-148.56;100.00;61375.16;4912786;28;21487;-27
2022/08/18 00:19:33;;;;;;;4.80;3.08;;;;;;;-148.56;100.00;61375.16;4916902;28;20038;-27
2022/08/18 00:21:58;;;;;;;3.63;2.88;;;;;;;-148.56;100.00;61375.16;4916468;28;20084;-29
2022/08/18 00:24:24;;;;;;;3.88;2.90;;;;;;;-148.56;100.00;61375.16;4935179;28;20037;-26
2022/08/18 00:26:50;;;;;;;3.10;2.80;;;;;;;-148.56;100.00;61375.16;4922868;28;20561;-28
2022/08/18 00:29:15;;;;;;;3.40;2.90;;;;;;;-148.56;100.00;61375.16;4911538;28;20038;-28
2022/08/18 00:31:41;;;;;;;3.50;2.75;;;;;;;-148.56;100.00;61375.16;4915101;28;20093;-27
2022/08/18 00:34:06;;;;;;;3.22;2.92;;;;;;;-148.56;100.00;61375.16;4909189;28;20254;-28
2022/08/18 00:36:33;;;;;;;3.83;2.80;;;;;;;-148.56;100.00;61375.16;4910322;28;22364;-26
2022/08/18 00:39:07;;;;;;;4.10;2.80;;;;;;;-148.56;100.00;61375.16;4919414;28;20031;-26
2022/08/18 00:41:33;;;;;;;3.42;2.70;;;;;;;-148.56;100.00;61375.16;4915442;28;20688;-27
2022/08/18 00:43:58;;;;;;;3.38;2.88;;;;;;;-148.56;100.00;61375.16;4916372;28;20061;-26
2022/08/18 00:46:28;;;;;;;3.65;2.60;;;;;;;-148.56;100.00;61375.16;4908114;28;20026;-30
2022/08/18 00:48:54;;;;;;;3.85;2.78;;;;;;;-148.56;100.00;61375.16;4918032;28;20088;-26
2022/08/18 00:51:39;;;;;;;4.90;3.00;;;;;;;-148.56;100.00;61375.16;4918543;28;20636;-32
2022/08/18 00:54:05;;;;;;;3.25;2.90;;;;;;;-148.56;100.00;61375.16;4915734;28;20046;-29
2022/08/18 00:56:43;;;;;;;3.15;2.78;;;;;;;-148.56;100.00;61375.16;4910072;28;20061;-29
2022/08/18 00:59:42;;;;;;;3.95;2.70;;;;;;;-148.56;100.00;61375.16;4905778;28;20054;-29
2022/08/18 01:02:11;;;;;;;4.50;2.90;;;;;;;-148.56;100.00;61375.16;4907139;28;20038;-27
2022/08/18 01:04:52;;;;;;;2.85;2.60;;;;;;;-148.56;100.00;61375.16;4907474;28;20093;-30
2022/08/18 01:07:23;;;;;;;;;;;;;;;-148.56;100.00;61375.16;4921301;28;20053;-30
2022/08/18 01:09:52;;;;;;;3.40;2.83;;;;;;;-148.56;100.00;61375.16;4910225;28;19922;-27
2022/08/18 01:12:18;;;;;;;3.58;3.03;;;;;;;-148.56;100.00;61375.16;4904054;28;22823;-32
2022/08/18 01:14:43;;;;;;;4.88;2.83;;;;;;;-148.56;100.00;61375.16;4904619;28;20033;-29
2022/08/18 01:22:49;;;;;;;3.50;2.65;;;;;;;-148.56;100.00;61375.16;4907771;28;20336;-27
2022/08/18 01:28:02;;;;;;;6.05;3.10;;;;;;;-148.56;100.00;61375.16;4909996;28;20088;-26
2022/08/18 01:30:27;;;;;;;5.40;2.90;;;;;;;-148.56;100.00;61375.16;4908701;28;20034;-31
2022/08/18 01:32:53;;;;;;;4.10;2.88;;;;;;;-148.56;100.00;61375.16;4908494;28;20100;-31
2022/08/18 01:35:19;;;;;;;3.50;2.67;;;;;;;-148.56;100.00;61375.16;4908504;28;20209;-32
2022/08/18 01:37:45;;;;;;;4.28;2.95;;;;;;;-148.56;100.00;61375.16;4906559;28;20085;-27
2022/08/18 01:40:11;;;;;;;3.67;2.70;;;;;;;-148.56;100.00;61375.16;4905342;28;20072;-29
2022/08/18 01:42:37;;;;;;;3.40;2.65;;;;;;;-148.56;100.00;61375.16;4910644;28;20120;-30
2022/08/18 01:45:05;;;;;;;4.45;3.00;;;;;;;-148.56;100.00;61375.16;4907157;28;20034;-30
2022/08/18 01:47:31;;;;;;;3.47;2.58;;;;;;;-148.56;100.00;61375.16;4919743;28;20026;-29
2022/08/18 01:49:57;;;;;;;4.10;2.70;;;;;;;-148.56;100.00;61375.16;4914495;28;20038;-29
2022/08/18 01:52:22;;;;;;;5.57;3.35;;;;;;;-148.56;100.00;61375.16;4924766;28;20141;-30
2022/08/18 01:54:48;;;;;;;3.85;2.40;;;;;;;-148.56;100.00;61375.16;4920251;28;20034;-26
2022/08/18 01:57:14;;;;;;;6.10;2.72;;;;;;;-148.56;100.00;61375.16;4922219;28;20154;-33
2022/08/18 01:59:40;;;;;;;2.97;2.70;;;;;;;-148.56;100.00;61375.16;4912277;28;20047;-27
2022/08/18 02:02:05;;;;;;;4.57;2.80;;;;;;;-148.56;100.00;61375.16;4919888;28;20093;-28
2022/08/18 02:04:34;;;;;;;3.72;2.78;;;;;;;-148.56;100.00;61375.16;4908213;28;20161;-29
2022/08/18 02:07:01;;;;;;;3.35;2.60;;;;;;;-148.56;100.00;61375.16;4897919;28;20038;-27
2022/08/18 02:09:27;;;;;;;3.47;2.55;;;;;;;-148.56;100.00;61375.16;4925049;28;20530;-33
2022/08/18 02:11:52;;;;;;;4.45;2.70;;;;;;;-148.56;100.00;61375.16;4919215;28;20038;-30
2022/08/18 02:14:18;;;;;;;3.28;2.65;;;;;;;-148.56;100.00;61375.16;4912990;28;20030;-27
2022/08/18 02:16:43;;;;;;;2.63;2.42;;;;;;;-148.56;100.00;61375.16;4912896;28;20030;-27
2022/08/18 02:19:08;;;;;;;3.42;2.78;;;;;;;-148.56;100.00;61375.16;4906308;28;20125;-26
2022/08/18 02:21:34;;;;;;;3.88;2.88;;;;;;;-148.56;100.00;61375.16;4915076;28;20045;-32
2022/08/18 02:23:59;;;;;;;3.53;2.75;;;;;;;-148.56;100.00;61375.16;4927099;28;20556;-24
2022/08/18 02:26:25;;;;;;;3.55;2.72;;;;;;;-148.56;100.00;61375.16;4913438;28;20145;-25
2022/08/18 02:28:51;;;;;;;3.05;2.67;;;;;;;-148.56;100.00;61375.16;4912196;28;20045;-25
2022/08/18 02:31:18;;;;;;;3.47;2.70;;;;;;;-148.56;100.00;61375.16;4924731;28;20034;-28
2022/08/18 02:33:44;;;;;;;3.83;2.53;;;;;;;-148.56;100.00;61375.16;4917507;28;20038;-26
2022/08/18 02:36:10;;;;;;;3.35;2.72;;;;;;;-148.56;100.00;61375.16;4931952;28;22666;-31
2022/08/18 02:38:36;;;;;;;2.67;2.45;;;;;;;-148.56;100.00;61375.16;4922881;28;20137;-26
2022/08/18 02:41:02;;;;;;;2.90;2.60;;;;;;;-148.56;100.00;61375.16;4917576;28;20030;-28
2022/08/18 02:43:28;;;;;;;2.83;2.40;;;;;;;-148.56;100.00;61375.16;4919532;28;20038;-31
2022/08/18 02:45:53;;;;;;;4.35;2.80;;;;;;;-148.56;100.00;61375.16;4916318;28;21872;-28
2022/08/18 02:48:52;;;;;;;3.22;2.70;;;;;;;-148.56;100.00;61375.16;4924653;28;20041;-27
2022/08/18 02:51:15;;;;;;;3.10;2.60;;;;;;;-148.56;100.00;61375.16;4924657;28;20042;-28
2022/08/18 02:53:42;;;;;;;3.38;2.72;;;;;;;-148.56;100.00;61375.16;4919325;28;20022;-26
2022/08/18 02:56:28;;;;;;;3.35;2.50;;;;;;;-148.56;100.00;61375.16;4921222;28;20033;-30
2022/08/18 02:58:58;;;;;;;3.42;2.67;;;;;;;-148.56;100.00;61375.16;4918597;28;20037;-26
2022/08/18 03:01:25;;;;;;;2.97;2.35;;;;;;;-148.56;100.00;61375.16;4928217;28;20564;-25
2022/08/18 03:03:51;;;;;;;3.90;2.70;;;;;;;-148.56;100.00;61375.16;4919086;28;21139;-27
2022/08/18 03:06:17;;;;;;;3.35;2.80;;;;;;;-148.56;100.00;61375.16;4915597;28;20046;-27
2022/08/18 03:08:47;;;;;;;3.97;2.70;;;;;;;-148.56;100.00;61375.16;4915951;28;20031;-28
2022/08/18 03:11:13;;;;;;;3.25;2.80;;;;;;;-148.56;100.00;61375.16;4911971;28;20118;-26
2022/08/18 03:13:39;;;;;;;3.60;2.80;;;;;;;-148.56;100.00;61375.16;4922889;28;20569;-25
2022/08/18 03:16:04;;;;;;;3.97;2.95;;;;;;;-148.56;100.00;61375.16;4911084;28;20038;-25
2022/08/18 03:18:30;;;;;;;5.50;2.92;;;;;;;-148.56;100.00;61375.16;4915693;28;20026;-31
2022/08/18 03:20:57;;;;;;;3.28;2.58;;;;;;;-148.56;100.00;61375.16;4915424;28;20034;-27
2022/08/18 03:23:22;;;;;;;3.70;2.97;;;;;;;-148.56;100.00;61375.16;4919501;28;20054;-32
2022/08/18 03:25:48;;;;;;;4.82;3.28;;;;;;;-148.56;100.00;61375.16;4928008;28;20068;-30
2022/08/18 03:28:14;;;;;;;4.32;2.95;;;;;;;-148.56;100.00;61375.16;4927547;28;20039;-25
2022/08/18 03:30:39;;;;;;;3.60;2.90;;;;;;;-148.56;100.00;61375.16;4938171;28;20041;-30
2022/08/18 03:33:04;;;;;;;4.22;3.00;;;;;;;-148.56;100.00;61375.16;4920387;28;21188;-28
2022/08/18 03:35:30;;;;;;;3.20;2.90;;;;;;;-148.56;100.00;61375.16;4919987;28;20717;-27
2022/08/18 03:37:58;;;;;;;3.53;2.85;;;;;;;-148.56;100.00;61375.16;4918770;28;20046;-27
2022/08/18 03:40:24;;;;;;;3.58;2.80;;;;;;;-148.56;100.00;61375.16;4915331;28;20034;-30
2022/08/18 03:42:49;;;;;;;2.88;2.58;;;;;;;-148.56;100.00;61375.16;4915631;28;20366;-30
2022/08/18 03:45:15;;;;;;;3.78;2.65;;;;;;;-148.56;100.00;61375.16;4919965;28;20788;-27
2022/08/18 03:47:41;;;;;;;4.65;2.70;;;;;;;-148.56;100.00;61375.16;4920021;28;20030;-27
2022/08/18 03:50:07;;;;;;;3.50;2.80;;;;;;;-148.56;100.00;61375.16;4923571;28;20116;-31
2022/08/18 03:52:32;;;;;;;3.22;2.85;;;;;;;-148.56;100.00;61375.16;4921656;28;20034;-29
2022/08/18 03:54:58;;;;;;;4.70;3.03;;;;;;;-148.56;100.00;61375.16;4918869;28;20096;-30
2022/08/18 03:57:24;;;;;;;3.63;2.97;;;;;;;-148.56;100.00;61375.16;4925321;28;20049;-26
2022/08/18 03:59:49;;;;;;;3.35;2.85;;;;;;;-148.56;100.00;61375.16;4919011;28;20038;-28
2022/08/18 04:02:15;;;;;;;3.03;2.47;;;;;;;-148.56;100.00;61375.16;4924873;28;20038;-27
2022/08/18 04:04:40;;;;;;;3.83;2.45;;;;;;;-148.56;100.00;61375.16;4937952;28;20133;-32
2022/08/18 04:07:08;;;;;;;3.55;2.90;;;;;;;-148.56;100.00;61375.16;4914965;28;20034;-31
2022/08/18 04:09:33;;;;;;;3.42;2.53;;;;;;;-148.56;100.00;61375.16;4915984;28;20057;-29
2022/08/18 04:12:03;;;;;;;3.38;2.90;;;;;;;-148.56;100.00;61375.16;4918418;28;20862;-28
2022/08/18 04:14:30;;;;;;;3.28;2.90;;;;;;;-148.56;100.00;61375.16;4918627;28;21965;-29
2022/08/18 04:16:56;;;;;;;3.63;2.60;;;;;;;-148.56;100.00;61375.16;4919101;28;20093;-30
2022/08/18 04:19:22;;;;;;;2.92;2.55;;;;;;;-148.56;100.00;61375.16;4914512;28;20798;-26
2022/08/18 04:21:50;;;;;;;3.58;2.70;;;;;;;-148.56;100.00;61375.16;4916182;28;20034;-31
2022/08/18 04:24:16;;;;;;;4.70;2.92;;;;;;;-148.56;100.00;61375.16;4913257;28;20089;-26
2022/08/18 04:26:44;;;;;;;3.88;2.70;;;;;;;-148.56;100.00;61375.16;4924394;28;20030;-31
2022/08/18 04:29:10;;;;;;;2.90;2.60;;;;;;;-148.56;100.00;61375.16;4923545;28;20421;-26
2022/08/18 04:31:36;;;;;;;3.35;2.67;;;;;;;-148.56;100.00;61375.16;4938740;28;20871;-29
2022/08/18 04:34:02;;;;;;;3.08;2.63;;;;;;;-148.56;100.00;61375.16;4916550;28;20144;-27
2022/08/18 04:36:28;;;;;;;3.97;2.90;;;;;;;-148.56;100.00;61375.16;4923777;28;21067;-29
2022/08/18 04:38:53;;;;;;;3.15;2.55;;;;;;;-148.56;100.00;61375.16;4915207;28;20149;-28
2022/08/18 04:41:19;;;;;;;3.65;2.90;;;;;;;-148.56;100.00;61375.16;4918408;28;21094;-29
2022/08/18 04:43:45;;;;;;;5.13;2.90;;;;;;;-148.56;100.00;61375.16;4914606;28;20608;-29
2022/08/18 04:46:11;;;;;;;3.38;2.38;;;;;;;-148.56;100.00;61375.16;4917755;28;20031;-30
2022/08/18 04:48:37;;;;;;;3.78;2.83;;;;;;;-148.56;100.00;61375.16;4923024;28;20081;-26
2022/08/18 04:51:11;;;;;;;3.33;2.75;;;;;;;-148.56;100.00;61375.16;4919115;28;20048;-26
2022/08/18 04:53:45;;;;;;;3.47;2.63;;;;;;;-148.56;100.00;61375.16;4919045;28;20233;-29
2022/08/18 04:56:20;;;;;;;3.47;2.72;;;;;;;-148.56;100.00;61375.16;4908285;28;21150;-28
2022/08/18 04:58:49;;;;;;;3.30;2.55;;;;;;;-148.56;100.00;61375.16;4915914;28;20121;-29
2022/08/18 05:01:16;;;;;;;3.97;2.85;;;;;;;-148.56;100.00;61375.16;4925610;28;20316;-28
2022/08/18 05:03:42;;;;;;;4.72;2.80;;;;;;;-148.56;100.00;61375.16;4907804;28;20037;-29
2022/08/18 05:06:08;;;;;;;4.25;2.90;;;;;;;-148.56;100.00;61375.16;4917480;28;20018;-27
2022/08/18 05:08:34;;;;;;;3.00;2.70;;;;;;;-148.56;100.00;61375.16;4910833;28;20089;-29
2022/08/18 05:10:59;;;;;;;3.80;2.67;;;;;;;-148.56;100.00;61375.16;4920783;28;20030;-26
2022/08/18 05:13:25;;;;;;;4.32;2.80;;;;;;;-148.56;100.00;61375.16;4917908;28;20039;-32
2022/08/18 05:15:55;;;;;;;3.40;2.63;;;;;;;-148.56;100.00;61375.16;4932545;28;20081;-32
2022/08/18 05:18:23;;;;;;;3.88;2.67;;;;;;;-148.56;100.00;61375.16;4922091;28;20026;-32
2022/08/18 05:20:49;;;;;;;8.02;3.20;;;;;;;-148.56;100.00;61375.16;4923921;28;20030;-29
2022/08/18 05:23:16;;;;;;;5.25;2.67;;;;;;;-148.56;100.00;61375.16;4916327;28;20022;-29
2022/08/18 05:25:41;;;;;;;3.30;2.50;;;;;;;-148.56;100.00;61375.16;4917771;28;20026;-30
2022/08/18 05:28:08;;;;;;;6.00;2.78;;;;;;;-148.56;100.00;61375.16;4921313;28;20589;-28
2022/08/18 05:30:35;;;;;;;4.93;2.85;;;;;;;-148.56;100.00;61375.16;4926088;28;20909;-29
2022/08/18 05:33:02;;;;;;;4.32;3.10;;;;;;;-148.56;100.00;61375.16;4913904;28;20034;-28
2022/08/18 05:35:35;;;;;;;4.50;2.70;;;;;;;-148.56;100.00;61375.16;4918849;28;20057;-29
2022/08/18 05:38:15;;;;;;;4.07;2.88;;;;;;;-148.56;100.00;61375.16;4932613;28;20037;-29
2022/08/18 05:40:41;;;;;;;3.63;2.63;;;;;;;-148.56;100.00;61375.16;4926713;28;20325;-33
2022/08/18 05:43:07;;;;;;;3.50;2.63;;;;;;;-148.56;100.00;61375.16;4921345;28;20035;-29
2022/08/18 05:45:33;;;;;;;4.45;3.00;;;;;;;-148.56;100.00;61375.16;4929295;28;20038;-27
2022/08/18 05:47:59;;;;;;;3.70;2.70;;;;;;;-148.56;100.00;61375.16;4909041;28;20034;-27
2022/08/18 05:50:24;;;;;;;3.28;2.58;;;;;;;-148.56;100.00;61375.16;4927672;28;20165;-27
2022/08/18 05:53:11;;;;;;;3.72;2.60;;;;;;;-148.56;100.00;61375.16;4911492;28;20026;-28
2022/08/18 05:58:33;;;;;;;7.82;3.22;;;;;;;-148.56;100.00;61375.16;4921896;28;20158;-31
2022/08/18 06:01:03;;;;;;;7.30;2.90;;;;;;;-148.56;100.00;61375.16;4923282;28;21136;-27
2022/08/18 06:03:39;;;;;;;4.75;3.20;;;;;;;-148.56;100.00;61375.16;4919224;28;20030;-30
2022/08/18 06:06:10;;;;;;;5.72;3.20;;;;;;;-148.56;100.00;61375.16;4916988;28;20199;-29
2022/08/18 06:08:39;;;;;;;4.20;3.10;;;;;;;-148.56;100.00;61375.16;4895288;28;20038;-31
2022/08/18 06:11:04;;;;;;;3.55;3.00;;;;;;;-148.56;100.00;61375.16;4917786;28;20038;-29
2022/08/18 06:13:31;;;;;;;5.15;3.05;;;;;;;-148.56;100.00;61375.16;4912401;28;20030;-26
2022/08/18 06:16:05;;;;;;;6.80;3.50;;;;;;;-148.56;100.00;61375.16;4901574;28;20551;-31
2022/08/18 06:18:55;;;;;;;5.35;3.22;;;;;;;-148.56;100.00;61375.16;4914685;28;20033;-30
2022/08/18 06:21:30;;;;;;;4.75;3.10;;;;;;;-148.56;100.00;61375.16;4915975;28;20132;-31
2022/08/18 06:24:18;;;;;;;6.70;3.22;;;;;;;-148.56;100.00;61375.16;4919410;28;20073;-30
2022/08/18 06:26:53;;;;;;;4.50;3.22;;;;;;;-148.56;100.00;61375.16;4918204;28;20022;-26
2022/08/18 06:29:23;;;;;;;8.50;3.30;;;;;;;-148.56;100.00;61375.16;4913249;28;20033;-26
2022/08/18 06:32:13;;;;;;;4.43;3.30;;;;;;;-148.56;100.00;61375.16;4901852;28;20603;-31
2022/08/18 06:35:00;;;;;;;8.75;4.20;;;;;;;-148.56;100.00;61375.16;4898637;28;20839;-30
2022/08/18 06:40:30;;;;;;;5.18;4.38;;;;;;;-148.56;100.00;61375.16;4910586;28;20639;-28
2022/08/18 06:42:55;;;;;;;8.45;4.45;;;;;;;-148.56;100.00;61375.16;4908717;28;20930;-29
2022/08/18 06:45:24;;;;;;;7.35;4.45;;;;;;;-148.56;100.00;61375.16;4914616;28;20195;-26
2022/08/18 06:47:58;;;;;;;5.35;4.07;;;;;;;-148.56;100.00;61375.16;4903587;28;20113;-29
2022/08/18 06:50:33;;;;;;;7.40;5.07;;;;;;;-148.56;100.00;61375.16;4890381;28;20041;-27
2022/08/18 06:53:06;;;;;;;5.05;4.55;;;;;;;-148.56;100.00;61375.16;4906786;28;20034;-29
2022/08/18 06:55:36;;;;;;;7.32;4.97;;;;;;;-148.56;100.00;61375.16;4908568;28;20477;-29
2022/08/18 06:58:05;;;;;;;6.80;5.28;;;;;;;-148.56;100.00;61375.16;4902364;28;20104;-32
2022/08/18 07:00:35;;;;;;;8.15;5.03;;;;;;;-148.56;100.00;61375.16;4910916;28;20030;-30
2022/08/18 07:03:09;;;;;;;6.43;4.40;;;;;;;-148.56;100.00;61375.16;4908906;28;20034;-29
2022/08/18 07:05:35;;;;;;;8.85;5.40;;;;;;;-148.56;100.00;61375.16;4908845;28;20035;-27
2022/08/18 07:08:14;;;;;;;6.38;4.50;;;;;;;-148.56;100.00;61375.16;4893465;28;20082;-35
2022/08/18 07:10:42;;;;;;;5.85;4.68;;;;;;;-148.56;100.00;61375.16;4927547;28;20787;-29
2022/08/18 07:13:16;;;;;;;9.85;4.70;;;;;;;-148.56;100.00;61375.16;4920098;28;20538;-26
2022/08/18 07:15:47;;;;;;;7.38;4.85;;;;;;;-148.56;100.00;61375.16;4910416;28;20030;-28
2022/08/18 07:18:12;;;;;;;9.18;4.80;;;;;;;-148.56;100.00;61375.16;4900132;28;20625;-27
2022/08/18 07:20:44;;;;;;;10.80;4.80;;;;;;;-148.56;100.00;61375.16;4914450;28;20049;-28
2022/08/18 07:23:28;;;;;;;10.82;5.57;;;;;;;-148.56;100.00;61375.16;4918185;28;20116;-26
2022/08/18 07:26:05;;;;;;;7.18;4.75;;;;;;;-148.56;100.00;61375.16;4907831;28;20018;-26
2022/08/18 07:28:47;;;;;;;13.98;5.40;;;;;;;-148.56;100.00;61375.16;4907995;28;20030;-28
2022/08/18 07:31:25;;;;;;;8.25;5.22;;;;;;;-148.56;100.00;61375.16;4913072;28;20042;-32
2022/08/18 07:33:56;;;;;;;9.40;5.15;;;;;;;-148.56;100.00;61375.16;4915735;28;20056;-31
2022/08/18 07:36:23;;;;;;;;;;;;;;;-148.56;100.00;61375.16;4916219;28;20035;-30
2022/08/18 07:38:57;;;;;;;7.68;4.88;;;;;;;-148.56;100.00;61375.16;4915859;28;20055;-28
2022/08/18 07:41:27;;;;;;;12.70;5.32;;;;;;;-148.56;100.00;61375.16;4918163;28;20034;-32
2022/08/18 07:43:58;;;;;;;7.80;5.72;;;;;;;-148.56;100.00;61375.16;4924938;28;20422;-30
2022/08/18 07:46:30;;;;;;;13.88;5.65;;;;;;;-148.56;100.00;61375.16;4910747;28;20030;-30
2022/08/18 07:48:57;;;;;;;6.97;5.18;;;;;;;-148.56;100.00;61375.16;4926431;28;20149;-28
2022/08/18 07:51:46;;;;;;;11.07;6.10;;;;;;;-148.56;100.00;61375.16;4912214;28;20102;-30
2022/08/18 07:54:21;;;;;;;8.40;5.78;;;;;;;-148.56;100.00;61375.16;4909297;28;20116;-30
2022/08/18 07:57:01;;;;;;;7.80;6.15;;;;;;;-148.56;100.00;61375.16;4913032;28;20082;-27
2022/08/18 07:59:47;;;;;;;8.20;5.50;;;;;;;-148.56;100.00;61375.16;4919132;28;20049;-27
2022/08/18 08:02:19;;;;;;;7.97;5.80;;;;;;;-148.56;100.00;61375.16;4925002;28;20034;-30
2022/08/18 08:05:16;;;;;;;9.10;5.60;;;;;;;-148.56;100.00;61375.16;4925812;28;20128;-27
2022/08/18 08:07:48;;;;;;;6.45;5.05;;;;;;;-148.56;100.00;61375.16;4915134;28;20088;-31
2022/08/18 08:10:29;;;;;;;7.10;5.30;;;;;;;-148.56;100.00;61375.16;4922791;28;20110;-27
2022/08/18 08:13:05;;;;;;;7.90;5.22;;;;;;;-148.56;100.00;61375.16;4909184;28;20197;-31
2022/08/18 08:15:49;;;;;;;9.77;6.03;;;;;;;-148.56;100.00;61375.16;4905420;28;20045;-31
2022/08/18 08:18:24;;;;;;;9.23;5.50;;;;;;;-148.56;100.00;61375.16;4909335;28;20060;-29
2022/08/18 08:21:06;;;;;;;8.65;5.63;;;;;;;-148.56;100.00;61375.16;4909909;28;20050;-27
2022/08/18 08:24:07;;;;;;;8.85;5.70;;;;;;;-148.56;100.00;61375.16;4918908;28;20038;-28
2022/08/18 08:26:55;;;;;;;6.65;5.35;;;;;;;-148.56;100.00;61375.16;4916772;28;20042;-28
2022/08/18 08:29:34;;;;;;;11.18;5.05;;;;;;;-148.56;100.00;61375.16;4916485;28;20046;-33
2022/08/18 08:32:05;;;;;;;7.88;5.30;;;;;;;-148.56;100.00;61375.16;4906731;28;20064;-32
2022/08/18 08:34:36;;;;;;;7.20;5.13;;;;;;;-148.56;100.00;61375.16;4908840;28;20031;-28
2022/08/18 08:37:04;;;;;;;16.38;6.07;;;;;;;-148.56;100.00;61375.16;4904994;28;20042;-28
2022/08/18 08:39:39;;;;;;;13.20;5.93;;;;;;;-148.56;100.00;61375.16;4912067;28;20268;-31
2022/08/18 08:42:15;;;;;;;13.00;5.97;;;;;;;-148.56;100.00;61375.16;4915568;28;20405;-28
2022/08/18 08:45:22;;;;;;;14.05;5.50;;;;;;;-148.56;100.00;61375.16;4916029;28;20204;-30
2022/08/18 08:47:47;;;;;;;19.15;6.25;;;;;;;-148.56;100.00;61375.16;4899789;28;20435;-30
2022/08/18 08:50:15;;;;;;;14.70;5.25;;;;;;;-148.56;100.00;61375.16;4910146;28;20601;-28
2022/08/18 08:52:53;;;;;;;16.77;5.43;;;;;;;-148.56;100.00;61375.16;4916553;28;20172;-28
2022/08/18 08:55:26;;;;;;;10.90;5.45;;;;;;;-148.56;100.00;61375.16;4921991;28;20566;-35
2022/08/18 08:58:02;;;;;;;15.55;5.40;;;;;;;-148.56;100.00;61375.16;4917682;28;20042;-30
2022/08/18 09:00:27;;;;;;;15.45;5.13;;;;;;;-148.56;100.00;61375.16;4909757;28;20249;-33
2022/08/18 09:03:00;;;;;;;11.02;5.18;;;;;;;-148.56;100.00;61375.16;4911877;28;20030;-28
2022/08/18 09:05:47;;;;;;;9.93;4.65;;;;;;;-148.56;100.00;61375.16;4913845;28;20038;-28
2022/08/18 09:08:41;;;;;;;11.50;4.65;;;;;;;-148.56;100.00;61375.16;4915618;28;20038;-29
2022/08/18 09:11:22;;;;;;;11.88;5.18;;;;;;;-148.56;100.00;61375.16;4916546;28;20030;-29
2022/08/18 09:14:07;;;;;;;7.47;4.88;;;;;;;-148.56;100.00;61375.16;4917409;28;20137;-24
2022/08/18 09:17:02;;;;;;;11.57;4.97;;;;;;;-148.56;100.00;61375.16;4911750;28;20735;-30
2022/08/18 09:20:05;;;;;;;13.60;5.18;;;;;;;-148.56;100.00;61375.16;4917686;28;20105;-29
2022/08/18 09:22:50;;;;;;;11.23;4.72;;;;;;;-148.56;100.00;61375.16;4922182;28;20357;-33
2022/08/18 09:25:40;;;;;;;9.77;4.40;;;;;;;-148.56;100.00;61375.16;4928436;28;20043;-29
2022/08/18 09:28:13;;;;;;;8.57;4.57;;;;;;;-148.56;100.00;61375.16;4927525;28;20038;-27
2022/08/18 09:31:01;;;;;;;10.52;4.63;;;;;;;-148.56;100.00;61375.16;4917061;28;20328;-28
2022/08/18 09:33:28;;;;;;;11.38;4.63;;;;;;;-148.56;100.00;61375.16;4915153;28;20040;-28
2022/08/18 09:36:10;;;;;;;8.65;4.53;;;;;;;-148.56;100.00;61375.16;4931878;28;20816;-26
2022/08/18 09:41:49;;;;;;;8.00;4.35;;;;;;;-148.56;100.00;61375.16;4922464;28;20108;-31
2022/08/18 09:44:34;;;;;;;9.02;4.57;;;;;;;-148.56;100.00;61375.16;4906665;28;20040;-28
2022/08/18 09:47:01;;;;;;;7.55;4.30;;;;;;;-148.56;100.00;61375.16;4926064;28;20050;-28
2022/08/18 09:49:26;;;;;;;9.60;4.30;;;;;;;-148.56;100.00;61375.16;4923549;28;20101;-29
2022/08/18 09:51:53;;;;;;;8.05;4.22;;;;;;;-148.56;100.00;61375.16;4934319;28;20105;-33
2022/08/18 09:54:20;;;;;;;9.32;4.47;;;;;;;-148.56;100.00;61375.16;4925293;28;20143;-29
2022/08/18 09:56:49;;;;;;;9.25;4.05;;;;;;;-148.56;100.00;61375.16;4923202;28;20232;-25
2022/08/18 09:59:32;;;;;;;7.78;4.20;;;;;;;-148.56;100.00;61375.16;4932901;28;20043;-29
2022/08/18 10:02:09;;;;;;;7.40;4.40;;;;;;;-148.56;100.00;61375.16;4922400;28;21424;-29
2022/08/18 10:04:50;;;;;;;7.40;4.00;;;;;;;-148.56;100.00;61375.16;4920524;28;20478;-27
2022/08/18 10:07:29;;;;;;;8.00;4.37;;;;;;;-148.56;100.00;61375.16;4926815;28;20041;-26
2022/08/18 10:10:03;;;;;;;12.27;4.18;;;;;;;-148.56;100.00;61375.16;4918684;28;20033;-26
2022/08/18 10:12:40;;;;;;;8.38;4.20;;;;;;;-148.56;100.00;61375.16;4925185;28;20331;-26
2022/08/18 10:15:18;;;;;;;6.82;4.05;;;;;;;-148.56;100.00;61375.16;4910966;28;21887;-29
2022/08/18 10:18:16;;;;;;;7.03;3.67;;;;;;;-148.56;100.00;61375.16;4917459;28;20023;-26
2022/08/18 10:20:49;;;;;;;9.18;4.47;;;;;;;-148.56;100.00;61375.16;4925782;28;20061;-32
2022/08/18 10:23:52;;;;;;;8.40;4.07;;;;;;;-148.56;100.00;61375.16;4928694;28;20026;-29
2022/08/18 10:26:29;;;;;;;6.95;4.13;;;;;;;-148.56;100.00;61375.16;4918343;28;20136;-29
2022/08/18 10:28:57;;;;;;;6.68;3.83;;;;;;;-148.56;100.00;61375.16;4922798;28;20211;-30
2022/08/18 10:31:23;;;;;;;6.45;3.70;;;;;;;-148.56;100.00;61375.16;4917745;28;20034;-30
2022/08/18 10:34:01;;;;;;;7.00;3.83;;;;;;;-148.56;100.00;61375.16;4929844;28;20371;-31
2022/08/18 10:36:56;;;;;;;7.68;4.07;;;;;;;-148.56;100.00;61375.16;4917047;28;20034;-28
2022/08/18 10:39:29;;;;;;;6.90;4.40;;;;;;;-148.56;100.00;61375.16;4903700;28;20034;-29
2022/08/18 10:41:59;;;;;;;6.07;3.85;;;;;;;-148.56;100.00;61375.16;4914747;28;20041;-25
2022/08/18 10:44:24;;;;;;;5.97;3.53;;;;;;;-148.56;100.00;61375.16;4893715;28;20049;-31
2022/08/18 10:46:52;;;;;;;6.25;3.75;;;;;;;-148.56;100.00;61375.16;4920963;28;20050;-30
2022/08/18 10:49:24;;;;;;;6.03;3.60;;;;;;;-148.56;100.00;61375.16;4911779;28;20095;-30
2022/08/18 10:52:25;;;;;;;5.95;3.58;;;;;;;-148.56;100.00;61375.16;4915732;28;20029;-27
2022/08/18 10:55:08;;;;;;;6.68;3.50;;;;;;;-148.56;100.00;61375.16;4912854;28;20051;-32
2022/08/18 10:57:44;;;;;;;7.40;3.70;;;;;;;-148.56;100.00;61375.16;4927803;28;20038;-29
2022/08/18 11:00:12;;;;;;;4.45;3.33;;;;;;;-148.56;100.00;61375.16;4924704;28;20397;-32
2022/08/18 11:02:59;;;;;;;7.82;3.65;;;;;;;-148.56;100.00;61375.16;4931483;28;20037;-31
2022/08/18 11:05:25;;;;;;;5.68;3.50;;;;;;;-148.56;100.00;61375.16;4926602;28;20066;-32
2022/08/18 11:07:55;;;;;;;5.82;3.50;;;;;;;-148.56;100.00;61375.16;4928897;28;21063;-25
2022/08/18 11:10:23;;;;;;;6.00;3.38;;;;;;;-148.56;100.00;61375.16;4922380;28;20034;-26
2022/08/18 11:13:09;;;;;;;4.32;3.00;;;;;;;-148.56;100.00;61375.16;4908737;28;20058;-32
2022/08/18 11:15:38;;;;;;;6.05;3.20;;;;;;;-148.56;100.00;61375.16;4911742;28;20714;-26
2022/08/18 11:18:18;;;;;;;5.35;3.20;;;;;;;-148.56;100.00;61375.16;4908181;28;20802;-25
2022/08/18 11:20:44;;;;;;;5.07;3.38;;;;;;;-148.56;100.00;61375.16;4905049;28;20128;-24
2022/08/18 11:23:14;;;;;;;5.25;3.00;;;;;;;-148.56;100.00;61375.16;4905459;28;22030;-31
2022/08/18 11:25:40;;;;;;;6.13;3.40;;;;;;;-148.56;100.00;61375.16;4909530;28;20112;-31
2022/08/18 11:28:20;;;;;;;6.20;3.30;;;;;;;-148.56;100.00;61375.16;4912182;28;20128;-27
2022/08/18 11:30:48;;;;;;;4.75;3.28;;;;;;;-148.56;100.00;61375.16;4906934;28;20033;-30
2022/08/18 11:33:15;;;;;;;4.50;2.75;;;;;;;-148.56;100.00;61375.16;4910913;28;20089;-26
2022/08/18 11:35:45;;;;;;;4.57;3.22;;;;;;;-148.56;100.00;61375.16;4918426;28;20570;-30
2022/08/18 11:38:12;;;;;;;5.93;3.40;;;;;;;-148.56;100.00;61375.16;4908665;28;20034;-29
2022/08/18 11:40:40;;;;;;;4.68;2.90;;;;;;;-148.56;100.00;61375.16;4912101;28;20032;-29
2022/08/18 11:43:08;;;;;;;3.97;2.92;;;;;;;-148.56;100.00;61375.16;4916698;28;20057;-28
2022/08/18 11:45:43;;;;;;;6.10;2.85;;;;;;;-148.56;100.00;61375.16;4915866;28;20068;-30
2022/08/18 11:48:26;;;;;;;5.20;3.40;;;;;;;-148.56;100.00;61375.16;4904366;28;20069;-30